Time;durP1;ratioP1;P1;durP2;ratioP2;P2;SDS_P1;SDS_P2;PMS_P1;PMS_P2;Temp;Humidity;BMP_temperature;BMP_pressure;BME280_temperature;BME280_humidity;BME280_pressure;Samples;Min_cycle;Max_cycle;Signal;HPM_P1;HPM_P2
2022/03/04 07:13:27;;;;;;;55.22;23.38;;;;;;;;;;6243636;22;20472;-89
2022/03/04 07:15:53;;;;;;;61.15;26.25;;;;;;;;;;6190426;22;20491;-88
2022/03/04 07:18:20;;;;;;;56.03;25.10;;;;;;;;;;6162260;23;20069;-87
2022/03/04 07:20:46;;;;;;;69.80;26.83;;;;;;;;;;6185603;23;20305;-87
2022/03/04 07:23:14;;;;;;;61.83;25.50;;;;;;;;;;6160989;23;20015;-89
2022/03/04 07:25:40;;;;;;;58.95;24.98;;;-0.20;99.90;;;;;;6161778;23;20016;-90
2022/03/04 07:28:06;;;;;;;60.75;25.75;;;-0.10;99.90;;;;;;6184825;23;20449;-88
2022/03/04 07:30:32;;;;;;;57.55;24.60;;;0.00;99.90;;;;;;6183832;23;20047;-88
2022/03/04 07:32:59;;;;;;;55.55;23.85;;;0.00;99.90;;;;;;6135753;23;20449;-89
2022/03/04 07:35:25;;;;;;;59.05;24.10;;;0.00;99.90;;;;;;6136883;23;20021;-89
2022/03/04 07:37:50;;;;;;;54.65;23.35;;;0.10;99.90;;;;;;6184171;23;20458;-88
2022/03/04 07:40:16;;;;;;;59.22;24.95;;;0.10;99.90;;;;;;6183440;23;20023;-89
2022/03/04 07:42:43;;;;;;;57.67;26.30;;;0.20;99.90;;;;;;6134384;23;20016;-89
2022/03/04 07:45:10;;;;;;;54.95;24.27;;;0.20;99.90;;;;;;6181651;23;20016;-89
2022/03/04 07:47:37;;;;;;;51.60;23.05;;;0.20;99.90;;;;;;6183223;23;20012;-89
2022/03/04 07:50:06;;;;;;;51.88;22.38;;;0.20;99.90;;;;;;6184096;23;20019;-89
2022/03/04 07:52:32;;;;;;;56.05;23.27;;;0.20;99.90;;;;;;6185764;23;20589;-88
2022/03/04 07:55:03;;;;;;;50.72;23.33;;;0.20;99.90;;;;;;6132855;23;20008;-89
2022/03/04 07:57:29;;;;;;;50.35;23.10;;;0.30;99.90;;;;;;6184009;23;20016;-88
2022/03/04 07:59:56;;;;;;;57.33;25.27;;;0.30;99.90;;;;;;6183558;23;20008;-89
2022/03/04 08:02:22;;;;;;;52.70;22.95;;;;;;;;;;6182549;23;20011;-89
2022/03/04 08:04:48;;;;;;;56.47;24.23;;;;;;;;;;6181549;23;20012;-89
2022/03/04 08:07:15;;;;;;;51.08;23.50;;;;;;;;;;6159177;23;20098;-89
2022/03/04 08:09:41;;;;;;;55.45;23.30;;;0.30;99.90;;;;;;6184510;23;20012;-89
2022/03/04 08:12:09;;;;;;;51.10;22.95;;;;;;;;;;6184242;23;20285;-89
2022/03/04 08:14:35;;;;;;;54.28;22.92;;;;;;;;;;6178043;23;20437;-89
2022/03/04 08:17:01;;;;;;;51.42;22.58;;;;;;;;;;6177039;23;20088;-88
2022/03/04 08:19:27;;;;;;;47.20;21.83;;;;;;;;;;6153237;23;20084;-90
2022/03/04 08:21:53;;;;;;;56.90;22.75;;;;;;;;;;6180393;23;20036;-89
2022/03/04 08:24:19;;;;;;;55.03;23.38;;;0.50;99.90;;;;;;6154508;23;20020;-89
2022/03/04 08:26:45;;;;;;;51.13;23.08;;;0.80;99.90;;;;;;6179534;23;20019;-89
2022/03/04 08:29:11;;;;;;;50.33;22.90;;;0.80;99.90;;;;;;6131418;23;20100;-90
2022/03/04 08:31:38;;;;;;;51.83;21.98;;;0.90;99.90;;;;;;6178353;23;20473;-90
2022/03/04 08:34:05;;;;;;;43.58;21.10;;;;;;;;;;6178711;23;20040;-89
2022/03/04 08:36:32;;;;;;;45.72;22.05;;;0.90;99.90;;;;;;6177191;23;20119;-89
2022/03/04 08:39:00;;;;;;;44.45;20.73;;;0.90;99.90;;;;;;6179283;23;20023;-89
2022/03/04 08:41:25;;;;;;;43.75;22.02;;;1.10;99.90;;;;;;6176681;23;20074;-89
2022/03/04 08:43:51;;;;;;;48.00;21.77;;;1.10;99.90;;;;;;6127081;23;20012;-88
2022/03/04 08:46:18;;;;;;;42.05;20.35;;;1.20;99.90;;;;;;6126560;23;20075;-89
2022/03/04 08:48:44;;;;;;;45.22;21.02;;;1.20;99.90;;;;;;6176497;23;20020;-88
2022/03/04 08:51:10;;;;;;;40.88;19.52;;;1.20;99.90;;;;;;6175193;23;20012;-88
2022/03/04 08:53:36;;;;;;;42.70;20.67;;;1.30;99.90;;;;;;6179184;23;20082;-88
2022/03/04 08:56:06;;;;;;;45.35;21.35;;;1.30;99.90;;;;;;6182242;23;20468;-89
2022/03/04 08:58:32;;;;;;;41.17;19.63;;;;;;;;;;6181218;23;20025;-89
2022/03/04 09:00:58;;;;;;;47.17;20.70;;;1.30;99.90;;;;;;6183408;23;20103;-89
2022/03/04 09:03:24;;;;;;;42.60;19.25;;;1.50;99.90;;;;;;6181741;23;20217;-89
2022/03/04 09:05:50;;;;;;;43.03;19.73;;;1.50;99.90;;;;;;6179260;23;20017;-88
2022/03/04 09:08:16;;;;;;;43.35;19.05;;;1.60;99.90;;;;;;6176160;23;20055;-90
2022/03/04 09:10:42;;;;;;;39.60;18.27;;;1.70;99.90;;;;;;6178053;23;20008;-89
2022/03/04 09:13:08;;;;;;;42.38;19.48;;;1.80;99.90;;;;;;6124187;23;20023;-88
2022/03/04 09:15:34;;;;;;;43.40;18.73;;;1.80;99.90;;;;;;6179399;23;20012;-89
2022/03/04 09:18:00;;;;;;;38.85;19.73;;;1.80;99.90;;;;;;6128876;23;20020;-89
2022/03/04 09:20:26;;;;;;;38.35;19.63;;;1.80;99.90;;;;;;6179095;23;20034;-89
2022/03/04 09:22:53;;;;;;;39.95;19.23;;;1.80;99.90;;;;;;6179875;23;20290;-89
2022/03/04 09:25:19;;;;;;;33.13;16.92;;;1.80;99.90;;;;;;6181432;23;20016;-89
2022/03/04 09:27:46;;;;;;;36.40;18.02;;;1.80;99.90;;;;;;6177822;23;20020;-90
2022/03/04 09:30:12;;;;;;;34.42;17.98;;;1.80;99.90;;;;;;6178790;23;20047;-88
2022/03/04 09:32:40;;;;;;;33.72;18.13;;;1.90;99.90;;;;;;6177079;23;20019;-88
2022/03/04 09:35:07;;;;;;;36.28;18.38;;;2.00;99.90;;;;;;6181278;23;20122;-89
2022/03/04 09:37:34;;;;;;;34.95;19.00;;;2.10;99.90;;;;;;6181414;23;20091;-89
2022/03/04 09:40:00;;;;;;;35.33;18.85;;;2.20;99.90;;;;;;6159640;23;20016;-90
2022/03/04 13:43:32;;;;;;;12.35;8.05;;;10.00;87.60;;;;;;6243902;22;20083;-90
2022/03/04 13:46:38;;;;;;;13.02;9.00;;;10.80;83.10;;;;;;6192177;23;20024;-90
2022/03/04 13:49:06;;;;;;;13.27;8.63;;;11.00;80.90;;;;;;6168835;23;20023;-88
2022/03/04 13:51:33;;;;;;;13.88;9.13;;;12.00;86.00;;;;;;6167256;23;20086;-90
2022/03/04 13:54:08;;;;;;;12.45;8.40;;;13.10;81.10;;;;;;6170136;23;20016;-87
2022/03/04 13:56:42;;;;;;;12.35;8.85;;;14.10;75.40;;;;;;6170193;23;20101;-89
2022/03/04 13:59:08;;;;;;;12.13;8.48;;;14.40;72.30;;;;;;6193207;23;20059;-87
2022/03/04 14:01:37;;;;;;;12.98;8.90;;;14.00;71.00;;;;;;6168556;23;20024;-89
2022/03/04 14:04:11;;;;;;;14.50;9.57;;;13.30;70.20;;;;;;6192016;23;20079;-89
2022/03/04 14:06:37;;;;;;;12.77;8.80;;;12.70;69.80;;;;;;6190707;23;20020;-89
2022/03/04 14:09:12;;;;;;;14.40;9.43;;;12.40;70.30;;;;;;6188826;23;20416;-90
2022/03/04 14:11:39;;;;;;;12.52;9.30;;;12.40;69.50;;;;;;6190798;23;20027;-92
2022/03/04 14:14:06;;;;;;;12.90;8.85;;;12.30;70.10;;;;;;6143174;23;20472;-88
2022/03/04 14:16:33;;;;;;;12.95;8.13;;;12.00;69.00;;;;;;6190174;23;20012;-90
2022/03/04 14:19:05;;;;;;;12.18;8.15;;;12.20;69.10;;;;;;6141120;23;20349;-88
2022/03/04 14:21:31;;;;;;;12.93;8.43;;;12.40;69.20;;;;;;6190330;23;20058;-89
2022/03/04 14:24:02;;;;;;;13.60;8.60;;;12.60;68.80;;;;;;6165369;23;20020;-90
2022/03/04 14:26:35;;;;;;;15.35;8.85;;;12.40;67.50;;;;;;6191681;23;20016;-90
2022/03/04 14:29:20;;;;;;;12.18;8.05;;;12.60;68.20;;;;;;6191284;23;20082;-89
2022/03/04 14:31:47;;;;;;;14.15;9.80;;;13.10;67.60;;;;;;6190415;23;20012;-88
2022/03/04 14:34:15;;;;;;;13.80;9.15;;;13.30;67.30;;;;;;6167123;23;20344;-89
2022/03/04 14:36:41;;;;;;;15.57;9.25;;;13.20;67.10;;;;;;6191827;23;20069;-91
2022/03/04 14:39:12;;;;;;;14.63;9.30;;;13.40;66.80;;;;;;6192240;23;20012;-87
2022/03/04 14:41:39;;;;;;;13.88;9.35;;;14.00;65.90;;;;;;6208172;23;20327;-91
2022/03/04 14:44:10;;;;;;;15.20;9.65;;;14.90;64.90;;;;;;6185006;23;20016;-91
2022/03/04 14:46:39;;;;;;;13.50;9.40;;;15.40;62.80;;;;;;6186471;23;20055;-87
2022/03/04 14:49:10;;;;;;;11.90;9.02;;;16.00;62.70;;;;;;6212550;23;20012;-88
2022/03/04 14:51:40;;;;;;;12.90;9.32;;;16.70;61.40;;;;;;6186893;23;20008;-90
2022/03/04 14:54:09;;;;;;;11.25;8.57;;;17.50;59.70;;;;;;6186552;23;20389;-88
2022/03/04 14:56:37;;;;;;;11.60;8.82;;;18.40;57.50;;;;;;6208559;23;20008;-89
2022/03/04 14:59:05;;;;;;;13.63;9.00;;;19.00;56.60;;;;;;6160832;23;20024;-87
2022/03/04 15:01:49;;;;;;;11.55;8.63;;;19.20;55.60;;;;;;6187521;23;20016;-89
2022/03/04 15:04:21;;;;;;;13.88;9.45;;;18.80;52.40;;;;;;6185079;23;20454;-89
2022/03/04 15:06:49;;;;;;;14.00;10.20;;;18.20;54.90;;;;;;6185240;23;20034;-89
2022/03/04 15:09:45;;;;;;;12.73;9.23;;;17.80;55.20;;;;;;6186720;23;20044;-88
2022/03/04 15:12:54;;;;;;;13.90;9.02;;;17.60;54.50;;;;;;6168985;23;20012;-90
2022/03/04 15:15:31;;;;;;;;;;;17.20;53.10;;;;;;6187666;23;20051;-87
2022/03/04 15:18:07;;;;;;;11.20;8.65;;;16.60;52.00;;;;;;6185745;23;19916;-87
2022/03/04 15:20:35;;;;;;;12.95;8.60;;;15.90;57.00;;;;;;6165645;23;20064;-89
2022/03/04 15:23:05;;;;;;;11.02;8.23;;;15.20;56.10;;;;;;6162247;23;20028;-88
2022/03/04 15:25:31;;;;;;;13.20;9.43;;;14.40;56.80;;;;;;6187852;23;20376;-87
2022/03/04 15:28:00;;;;;;;14.05;10.05;;;13.60;57.00;;;;;;6189518;23;20508;-90
2022/03/04 15:30:26;;;;;;;13.38;10.57;;;12.90;58.30;;;;;;6189217;23;20100;-88
2022/03/04 15:33:00;;;;;;;14.85;10.93;;;12.50;59.90;;;;;;6188301;23;20476;-92
2022/03/04 15:39:14;;;;;;;14.30;9.85;;;12.80;59.60;;;;;;6137203;23;20032;-91
2022/03/04 15:44:35;;;;;;;11.50;8.40;;;12.60;62.20;;;;;;6141819;23;20031;-89
2022/03/04 15:47:16;;;;;;;10.25;8.15;;;12.50;62.50;;;;;;6161542;23;20016;-90
2022/03/04 15:50:08;;;;;;;13.88;7.85;;;12.60;61.60;;;;;;6139635;23;20374;-88
2022/03/04 15:55:35;;;;;;;13.80;9.15;;;12.40;61.70;;;;;;6186502;23;20274;-89
2022/03/04 15:58:27;;;;;;;14.23;10.65;;;12.50;61.30;;;;;;6160764;23;20016;-89
2022/03/04 16:00:56;;;;;;;15.10;9.93;;;12.50;60.80;;;;;;6163118;23;20013;-90
2022/03/04 16:03:35;;;;;;;;;;;;;;;;;;;;;
2022/03/04 16:06:26;;;;;;;13.07;9.05;;;12.30;61.00;;;;;;6143738;23;20016;-89
2022/03/04 16:09:12;;;;;;;14.57;9.20;;;12.00;61.20;;;;;;6193567;23;20070;-92
2022/03/04 16:12:34;;;;;;;14.32;8.82;;;11.50;61.60;;;;;;6138102;23;20012;-89
2022/03/04 16:15:55;;;;;;;12.40;9.05;;;11.00;61.70;;;;;;6096941;23;20009;-90
2022/03/04 16:21:53;;;;;;;12.30;8.57;;;9.90;63.20;;;;;;6185216;23;20020;-89
2022/03/04 16:25:06;;;;;;;12.23;8.48;;;9.60;64.10;;;;;;6188191;23;20016;-88
2022/03/04 16:28:41;;;;;;;;;;;;;;;;;;;;;
2022/03/04 16:31:17;;;;;;;8.48;5.90;;;9.00;64.50;;;;;;6167259;23;20013;-88
2022/03/04 16:33:46;;;;;;;12.30;7.32;;;8.70;65.20;;;;;;6159976;23;20070;-88
2022/03/04 21:57:15;;;;;;;20.02;10.10;;;0.10;99.90;;;;;;6296319;22;20023;-87
2022/03/04 21:59:41;;;;;;;22.67;10.38;;;0.10;99.90;;;;;;6188428;22;20019;-87
2022/03/04 22:02:08;;;;;;;17.67;9.60;;;0.10;99.90;;;;;;6187710;22;20015;-86
2022/03/04 22:04:33;;;;;;;19.35;10.38;;;0.10;99.90;;;;;;6209089;22;20118;-87
2022/03/04 22:06:59;;;;;;;18.60;10.80;;;0.00;99.90;;;;;;6211184;22;20128;-86
2022/03/04 22:09:25;;;;;;;20.75;10.32;;;0.00;99.90;;;;;;6213557;22;20011;-86
2022/03/04 22:11:51;;;;;;;17.75;10.40;;;0.00;99.90;;;;;;6235545;22;20269;-86
2022/03/04 22:14:17;;;;;;;19.98;10.77;;;-0.10;99.90;;;;;;6184567;22;20400;-87
2022/03/04 22:16:42;;;;;;;19.55;10.40;;;-0.10;99.90;;;;;;6210129;22;20553;-86
2022/03/04 22:19:08;;;;;;;20.55;11.20;;;-0.10;99.90;;;;;;6190927;22;20196;-86
2022/03/04 22:21:35;;;;;;;17.67;10.68;;;-0.10;99.90;;;;;;6209585;22;20098;-85
2022/03/04 22:24:02;;;;;;;19.55;10.65;;;-0.10;99.90;;;;;;6209441;22;20015;-87
2022/03/04 22:26:28;;;;;;;18.60;11.05;;;-0.20;99.90;;;;;;6208163;22;20319;-86
2022/03/04 22:28:57;;;;;;;20.10;10.98;;;-0.20;99.90;;;;;;6234528;22;20019;-86
2022/03/04 22:31:23;;;;;;;18.92;10.70;;;-0.30;99.90;;;;;;6210469;22;20285;-86
2022/03/04 22:33:51;;;;;;;18.90;11.23;;;-0.20;99.90;;;;;;6214434;22;20207;-86
2022/03/04 22:36:18;;;;;;;21.25;11.23;;;-0.20;99.90;;;;;;6208140;22;20086;-86
2022/03/04 22:38:44;;;;;;;20.98;11.43;;;-0.40;99.90;;;;;;6186045;22;20022;-86
2022/03/04 22:41:10;;;;;;;21.23;11.27;;;-0.30;99.90;;;;;;6236918;22;20011;-86
2022/03/04 22:43:36;;;;;;;24.50;11.90;;;-0.30;99.90;;;;;;6184227;22;20032;-86
2022/03/04 22:46:02;;;;;;;22.75;12.52;;;-0.30;99.90;;;;;;6234328;22;20557;-86
2022/03/04 22:48:28;;;;;;;24.50;12.00;;;-0.30;99.90;;;;;;6235076;22;20015;-87
2022/03/04 22:50:54;;;;;;;21.92;12.30;;;-0.40;99.90;;;;;;6185964;22;20019;-87
2022/03/04 22:53:19;;;;;;;20.33;11.60;;;-0.50;99.90;;;;;;6188187;22;20301;-86
2022/03/04 22:55:45;;;;;;;21.20;11.38;;;-0.40;99.90;;;;;;6186816;22;20539;-86
2022/03/04 22:58:11;;;;;;;24.25;12.02;;;-0.50;99.90;;;;;;6235088;22;20011;-86
2022/03/04 23:00:40;;;;;;;23.13;11.75;;;-0.50;99.90;;;;;;6182554;22;20364;-86
2022/03/04 23:08:35;;;;;;;26.55;12.50;;;-0.50;99.90;;;;;;6214346;22;20015;-86
2022/03/04 23:13:50;;;;;;;22.50;11.50;;;-0.50;99.90;;;;;;6251227;22;20012;-86
2022/03/04 23:16:18;;;;;;;20.52;11.63;;;-0.60;99.90;;;;;;6229251;22;20011;-86
2022/03/04 23:18:44;;;;;;;24.48;12.68;;;-0.60;99.90;;;;;;6229010;22;20022;-86
2022/03/04 23:21:11;;;;;;;24.00;12.15;;;-0.60;99.90;;;;;;6230917;22;20452;-86
2022/03/04 23:23:38;;;;;;;20.35;11.43;;;-0.60;99.90;;;;;;6211052;22;20057;-86
2022/03/04 23:26:04;;;;;;;18.17;11.05;;;-0.60;99.90;;;;;;6207964;22;20554;-86
2022/03/04 23:28:30;;;;;;;24.92;12.30;;;-0.60;99.90;;;;;;6210094;22;20073;-85
2022/03/04 23:30:56;;;;;;;19.60;11.05;;;-0.60;99.90;;;;;;6231635;22;20015;-86
2022/03/04 23:33:21;;;;;;;25.48;12.68;;;-0.70;99.90;;;;;;6209595;22;20042;-86
2022/03/04 23:35:47;;;;;;;21.77;13.05;;;-0.60;99.90;;;;;;6201101;22;20102;-86
2022/03/04 23:38:16;;;;;;;22.67;12.23;;;-0.70;99.90;;;;;;6204548;22;20019;-86
2022/03/04 23:40:42;;;;;;;24.88;12.18;;;-0.70;99.90;;;;;;6228693;22;20019;-85
2022/03/04 23:43:08;;;;;;;24.52;12.40;;;-0.70;99.90;;;;;;6179997;22;20517;-86
2022/03/04 23:45:34;;;;;;;24.85;12.45;;;-0.80;99.90;;;;;;6203629;22;20410;-86
2022/03/04 23:48:03;;;;;;;21.35;11.57;;;-0.80;99.90;;;;;;6209746;22;20019;-86
2022/03/04 23:50:30;;;;;;;24.67;11.32;;;-0.80;99.90;;;;;;6209824;22;20015;-86
2022/03/04 23:52:57;;;;;;;24.02;12.30;;;-0.80;99.90;;;;;;6232333;22;20015;-86
2022/03/04 23:55:24;;;;;;;22.25;12.02;;;-0.80;99.90;;;;;;6212923;22;20019;-85
2022/03/04 23:57:50;;;;;;;22.58;11.82;;;-0.80;99.90;;;;;;6181822;22;20007;-86
